Great Neck, NY (11020)

3:11 PM EST on January 24, 2017 (GMT -0500)
Kensington | | Change Station
Active Advisory: Small Craft Advisory

Elev 130 ft 40.79 °N, 73.72 °W | Updated 19 seconds ago

Rain
Rain
35.2 °F
Feels Like 29 °F
N
8.3
Wind Variable Wind from NNE
Gusts 9.8 mph

Today
High -- | Low -- °F
--% Chance of Precip.
Yesterday
High -- | Low -- °F
Precip. -- in
Pressure 29.31 in
Visibility 6.0 miles
Clouds Mostly Cloudy 1300 ft
Overcast 1900 ft
Windchill 29 °F
Dew Point 35 °F
Humidity 99%
Rainfall 0.85 in
Snow Depth Not available.
7:11 AM 5:02 PM
Waning Crescent, 10% visible
METAR KLGA 241951Z 33017KT 6SM -RA BKN013 OVC019 04/01 A2931 RMK AO2 RAB05 SLP926 P0002 T00390011 $
Pressure 29.31 in
Visibility 6.0 miles
Clouds Mostly Cloudy 1300 ft
Overcast 1900 ft
Windchill 29 °F
Dew Point 35 °F
Humidity 99%
Rainfall 0.85 in
Snow Depth Not available.
7:11 AM 5:02 PM
Waning Crescent, 10% visible
METAR KLGA 241951Z 33017KT 6SM -RA BKN013 OVC019 04/01 A2931 RMK AO2 RAB05 SLP926 P0002 T00390011 $

Get Your Daily Forecast Email!

Thanks for signing up!

Be on the lookout for a verification email in your inbox.

You'll start receiving the daily forecast at 8 AM.

×

10-Day Weather Forecast

Almanac

Astronomy

Jan. 24, 2017 Rise Set
Actual Time
Civil Twilight
Nautical Twilight
Astronomical Twilight
Moon
Length of Visible Light
Length of Day
Tomorrow will be .
, % of the Moon is Illuminated

Today's Extremes

State Highs State Lows

Community

WunderPhotos

Upload Photos

1,962,540 photos uploaded!

WunderBlog® & News

Nearby

Air Quality

  Air Quality AQ Index Pollutant
Not available.

Snow Depth

Station Depth Elevation

Earthquake Activity

City Distance Mag. Time & Date
Minimum magnitude displayed is 2.5.

Coastal Water Temperatures

Place Temperature

Stations

Nearby Weather Stations

Station Location Temp. Windchill Dew Point Humidity Wind Precip. Elev Updated Type
                   

Watches & Warnings

Small Craft Advisory
Issued: 11:53 AM EST Jan. 24, 2017 – National Weather Service

... Small Craft Advisory remains in effect until 6 am EST
Wednesday...

* winds and seas... northwest winds 15 to 25 kt with gusts up to 30
kt.

Precautionary/preparedness actions...

A Small Craft Advisory means that sustained wind speeds or
frequent gusts of 25 to 33 kt and/or seas of 5 ft or higher are
expected or occurring... and hazardous to small craft.
Inexperienced mariners... especially those operating smaller
vessels... should avoid navigating in these conditions.